28OI weather

Mount Carmel East Hospital Heliport
Columbus, Ohio, United States

Public forecast

Using degrees Fahrenheit for public forecast. Weather courtesy of forecast.io.

Closest aviation weather report (METAR) to Mount Carmel East Hospital Heliport

Closest report is John Glenn Columbus International Airport, 2.5 nm (4.7 km) WNW. Retrieved 2020/06/04 13:51 UTC (55 minutes ago):

KCMH 041351Z 12006KT 10SM OVC250 24/19 A2985 RMK AO2 SLP101 T02390194

Closest aviation forecast (TAF) to Mount Carmel East Hospital Heliport

Closest forecast is John Glenn Columbus International Airport, 2.5 nm (4.7 km) WNW. Retrieved 2020/06/04 12:24 UTC (2 hours ago):

TAF KCMH 041121Z 0412/0512 18006KT P6SM SCT050 BKN100 FM041800 20008KT P6SM VCTS SCT050CB BKN100 FM042100 20008KT P6SM -SHRA SCT050 BKN120 FM050300 20004KT P6SM BKN120